New Orleans, LA

7:50 PM CDT on August 20, 2014 (GMT -0500)
Lakefront | Change Station
CLOSE
Current Station
Airport
Location: New Orleans Lakefront,
Elevation: 10 ft
Nearby Weather Stations

Elev 10 ft 30.05 °N, 90.03 °W | Updated 57 minutes ago

Clear
Clear
85 °F
Feels Like 92 °F
N
8
Wind Variable Wind from South

Today
High -- | Low -- °F
--% Chance of Precip.
Yesterday
High -- | Low -- °F
Precip. -- in
6:30 AM 7:36 PM
Waning Crescent, 18% visible
Pressure 30.04 in
Visibility 10.0 miles
Clouds Clear
Heat Index 92 °F
Dew Point 74 °F
Humidity 69%
Rainfall 0.22 in
Snow Depth Not available.
UV 0 out of 12
Pollen 6.80 out of 12
Ozone Good
PM2.5 Moderate
Flu Activity Not available.
METAR KNEW 202353Z 19007KT 10SM CLR 29/23 A3005 RMK AO2 SLP170 60022 T02940233 10328 20256 58001

More Conditions Fewer Conditions

Pressure 30.04 in
Visibility 10.0 miles
Clouds Clear
Heat Index 92 °F
Dew Point 74 °F
Humidity 69%
Rainfall 0.22 in
Snow Depth Not available.
UV 0 out of 12
Pollen 6.80 out of 12
Ozone Good
PM2.5 Moderate
Flu Activity Not available.
METAR KNEW 202353Z 19007KT 10SM CLR 29/23 A3005 RMK AO2 SLP170 60022 T02940233 10328 20256 58001

More Conditions Fewer Conditions

10-Day Weather Forecast

Almanac

Astronomy

Aug. 20, 2014 Rise Set
Actual Time 6:30 AM CDT 7:36 PM CDT
Civil Twilight 6:05 AM CDT 8:01 PM CDT
Nautical Twilight 5:36 AM CDT 8:30 PM CDT
Astronomical Twilight 5:05 AM CDT 9:00 PM CDT
Moon 2:18 AM CDT (8/20) 4:13 PM CDT (8/20)
Length of Visible Light 13h 55m
Length of Day
13h 05m
Tomorrow will be 1m 38s shorter.
Waning Crescent, 18% of the Moon is Illuminated
Today
Waning Crescent
Aug 25
New
Sep 2
First Quarter
Sep 8
Full
Sep 15
Last Quarter

Today's Extremes

State Highs State Lows

Community

WunderPhotos

Upload Photos

1,745,823 photos uploaded!

WunderBlogs® & News

Nearby

Air Quality

  Air Quality AQ Index Pollutant
Yesterday Moderate
PM2.5
Yesterday Good
OZONE
Current Moderate
PM2.5
Current Good
OZONE
Wednesday Moderate
PM2.5
Wednesday Good
OZONE
Thursday Moderate
PM2.5
Thursday Good
OZONE
Friday Moderate
PM2.5
Friday Good
OZONE

Snow Depth

Station Depth Elevation
No new snow has been reported.

Earthquake Activity

City Distance Mag. Time & Date
No recent earthquake activity has been reported nearby.
Minimum magnitude displayed is 2.5.

Coastal Water Temperatures

Place Temperature
New Canal, LA 84.0 °F
Shell Beach, LA 82.9 °F
Bayou Gauche, LA 87.1 °F

Nearby Weather Stations